sensor_id;sensor_type;location;lat;lon;timestamp;temperature;humidity
64880;HTU21D;51374;45.124;36.712;2023-02-01T00:01:45;0.98;93.03
64880;HTU21D;51374;45.124;36.712;2023-02-01T00:04:11;0.99;93.04
64880;HTU21D;51374;45.124;36.712;2023-02-01T00:06:37;0.98;93.01
64880;HTU21D;51374;45.124;36.712;2023-02-01T00:09:03;0.97;93.05
64880;HTU21D;51374;45.124;36.712;2023-02-01T00:11:29;0.94;92.94
64880;HTU21D;51374;45.124;36.712;2023-02-01T00:13:56;0.92;92.95
64880;HTU21D;51374;45.124;36.712;2023-02-01T00:16:27;0.91;92.93
64880;HTU21D;51374;45.124;36.712;2023-02-01T00:19:06;0.90;92.91
64880;HTU21D;51374;45.124;36.712;2023-02-01T00:21:32;0.88;92.91
64880;HTU21D;51374;45.124;36.712;2023-02-01T00:23:58;0.90;92.95
64880;HTU21D;51374;45.124;36.712;2023-02-01T00:26:34;0.90;93.00
64880;HTU21D;51374;45.124;36.712;2023-02-01T00:29:02;0.91;93.03
64880;HTU21D;51374;45.124;36.712;2023-02-01T00:31:28;0.90;93.10
64880;HTU21D;51374;45.124;36.712;2023-02-01T00:33:54;0.88;93.11
64880;HTU21D;51374;45.124;36.712;2023-02-01T00:36:20;0.88;93.17
64880;HTU21D;51374;45.124;36.712;2023-02-01T00:38:46;0.91;93.17
64880;HTU21D;51374;45.124;36.712;2023-02-01T00:41:22;0.92;93.15
64880;HTU21D;51374;45.124;36.712;2023-02-01T00:43:49;0.93;93.08
64880;HTU21D;51374;45.124;36.712;2023-02-01T00:46:16;0.95;93.08
64880;HTU21D;51374;45.124;36.712;2023-02-01T00:48:42;0.97;93.04
64880;HTU21D;51374;45.124;36.712;2023-02-01T00:51:14;0.98;93.03
64880;HTU21D;51374;45.124;36.712;2023-02-01T00:53:40;1.01;93.05
64880;HTU21D;51374;45.124;36.712;2023-02-01T00:56:07;1.04;93.01
64880;HTU21D;51374;45.124;36.712;2023-02-01T00:58:33;1.05;92.98
64880;HTU21D;51374;45.124;36.712;2023-02-01T01:03:33;1.10;93.02
64880;HTU21D;51374;45.124;36.712;2023-02-01T01:06:02;1.12;93.02
64880;HTU21D;51374;45.124;36.712;2023-02-01T01:08:28;1.17;93.01
64880;HTU21D;51374;45.124;36.712;2023-02-01T01:10:54;1.19;93.01
64880;HTU21D;51374;45.124;36.712;2023-02-01T01:13:20;1.19;92.94
64880;HTU21D;51374;45.124;36.712;2023-02-01T01:15:46;1.18;92.92
64880;HTU21D;51374;45.124;36.712;2023-02-01T01:18:12;1.20;92.97
64880;HTU21D;51374;45.124;36.712;2023-02-01T01:20:40;1.23;93.03
64880;HTU21D;51374;45.124;36.712;2023-02-01T01:23:07;1.26;93.05
64880;HTU21D;51374;45.124;36.712;2023-02-01T01:25:38;1.31;92.98
64880;HTU21D;51374;45.124;36.712;2023-02-01T01:28:04;1.32;92.98
64880;HTU21D;51374;45.124;36.712;2023-02-01T01:30:30;1.35;92.98
64880;HTU21D;51374;45.124;36.712;2023-02-01T01:32:56;1.36;92.97
64880;HTU21D;51374;45.124;36.712;2023-02-01T01:35:22;1.38;92.92
64880;HTU21D;51374;45.124;36.712;2023-02-01T01:37:48;1.40;92.94
64880;HTU21D;51374;45.124;36.712;2023-02-01T01:40:14;1.42;92.95
64880;HTU21D;51374;45.124;36.712;2023-02-01T01:42:42;1.43;92.91
64880;HTU21D;51374;45.124;36.712;2023-02-01T01:45:28;1.47;92.91
64880;HTU21D;51374;45.124;36.712;2023-02-01T01:48:11;1.48;92.95
64880;HTU21D;51374;45.124;36.712;2023-02-01T01:50:45;1.52;92.98
64880;HTU21D;51374;45.124;36.712;2023-02-01T01:53:18;1.54;92.94
64880;HTU21D;51374;45.124;36.712;2023-02-01T01:55:46;1.55;92.91
64880;HTU21D;51374;45.124;36.712;2023-02-01T01:58:18;1.57;92.92
64880;HTU21D;51374;45.124;36.712;2023-02-01T02:00:46;1.58;92.94
64880;HTU21D;51374;45.124;36.712;2023-02-01T02:03:23;1.62;92.96
64880;HTU21D;51374;45.124;36.712;2023-02-01T02:05:52;1.62;92.95
64880;HTU21D;51374;45.124;36.712;2023-02-01T02:08:20;1.63;92.92
64880;HTU21D;51374;45.124;36.712;2023-02-01T02:10:48;1.61;92.88
64880;HTU21D;51374;45.124;36.712;2023-02-01T02:13:38;1.61;92.92
64880;HTU21D;51374;45.124;36.712;2023-02-01T02:22:21;1.58;92.95
64880;HTU21D;51374;45.124;36.712;2023-02-01T02:30:35;1.52;93.09
64880;HTU21D;51374;45.124;36.712;2023-02-01T02:36:25;1.50;93.09
64880;HTU21D;51374;45.124;36.712;2023-02-01T02:41:56;1.45;93.09
64880;HTU21D;51374;45.124;36.712;2023-02-01T02:44:50;1.43;93.10
64880;HTU21D;51374;45.124;36.712;2023-02-01T02:47:44;1.42;93.14
64880;HTU21D;51374;45.124;36.712;2023-02-01T02:50:27;1.39;93.15
64880;HTU21D;51374;45.124;36.712;2023-02-01T02:53:18;1.37;93.14
64880;HTU21D;51374;45.124;36.712;2023-02-01T02:56:05;1.35;93.14
64880;HTU21D;51374;45.124;36.712;2023-02-01T02:58:50;1.34;93.17
64880;HTU21D;51374;45.124;36.712;2023-02-01T03:01:37;1.34;93.21
64880;HTU21D;51374;45.124;36.712;2023-02-01T03:04:22;1.32;93.27
64880;HTU21D;51374;45.124;36.712;2023-02-01T03:06:49;1.33;93.33
64880;HTU21D;51374;45.124;36.712;2023-02-01T03:09:34;1.31;93.35
64880;HTU21D;51374;45.124;36.712;2023-02-01T03:12:05;1.29;93.33
64880;HTU21D;51374;45.124;36.712;2023-02-01T03:14:56;1.28;93.39
64880;HTU21D;51374;45.124;36.712;2023-02-01T03:17:29;1.28;93.41
64880;HTU21D;51374;45.124;36.712;2023-02-01T03:19:59;1.27;93.36
64880;HTU21D;51374;45.124;36.712;2023-02-01T03:22:28;1.27;93.36
64880;HTU21D;51374;45.124;36.712;2023-02-01T03:25:09;1.27;93.35
64880;HTU21D;51374;45.124;36.712;2023-02-01T03:30:19;1.27;93.32
64880;HTU21D;51374;45.124;36.712;2023-02-01T03:32:48;1.26;93.31
64880;HTU21D;51374;45.124;36.712;2023-02-01T03:41:18;1.23;93.24
64880;HTU21D;51374;45.124;36.712;2023-02-01T03:47:19;1.20;93.21
64880;HTU21D;51374;45.124;36.712;2023-02-01T03:52:23;1.22;93.34
64880;HTU21D;51374;45.124;36.712;2023-02-01T03:54:51;1.27;93.46
64880;HTU21D;51374;45.124;36.712;2023-02-01T03:57:22;1.33;93.52
64880;HTU21D;51374;45.124;36.712;2023-02-01T03:59:50;1.35;93.60
64880;HTU21D;51374;45.124;36.712;2023-02-01T04:02:16;1.39;93.50
64880;HTU21D;51374;45.124;36.712;2023-02-01T04:04:42;1.39;93.46
64880;HTU21D;51374;45.124;36.712;2023-02-01T04:07:09;1.40;93.45
64880;HTU21D;51374;45.124;36.712;2023-02-01T04:09:35;1.38;93.42
64880;HTU21D;51374;45.124;36.712;2023-02-01T04:12:01;1.39;93.46
64880;HTU21D;51374;45.124;36.712;2023-02-01T04:14:27;1.38;93.44
64880;HTU21D;51374;45.124;36.712;2023-02-01T04:16:53;1.35;93.39
64880;HTU21D;51374;45.124;36.712;2023-02-01T04:19:20;1.28;93.27
64880;HTU21D;51374;45.124;36.712;2023-02-01T04:21:45;1.22;93.24
64880;HTU21D;51374;45.124;36.712;2023-02-01T04:24:11;1.13;93.24
64880;HTU21D;51374;45.124;36.712;2023-02-01T04:26:37;1.07;93.32
64880;HTU21D;51374;45.124;36.712;2023-02-01T04:29:03;1.02;93.29
64880;HTU21D;51374;45.124;36.712;2023-02-01T04:31:29;0.97;93.34
64880;HTU21D;51374;45.124;36.712;2023-02-01T04:33:55;0.96;93.40
64880;HTU21D;51374;45.124;36.712;2023-02-01T04:36:23;0.96;93.47
64880;HTU21D;51374;45.124;36.712;2023-02-01T04:38:50;0.95;93.45
64880;HTU21D;51374;45.124;36.712;2023-02-01T04:41:16;0.94;93.45
64880;HTU21D;51374;45.124;36.712;2023-02-01T04:43:49;0.95;93.46
64880;HTU21D;51374;45.124;36.712;2023-02-01T04:46:15;0.94;93.50
64880;HTU21D;51374;45.124;36.712;2023-02-01T04:48:41;0.96;93.58
64880;HTU21D;51374;45.124;36.712;2023-02-01T04:51:09;0.96;93.53
64880;HTU21D;51374;45.124;36.712;2023-02-01T04:53:35;0.97;93.49
64880;HTU21D;51374;45.124;36.712;2023-02-01T04:56:02;0.96;93.38
64880;HTU21D;51374;45.124;36.712;2023-02-01T04:58:27;0.92;93.31
64880;HTU21D;51374;45.124;36.712;2023-02-01T05:00:53;0.91;93.36
64880;HTU21D;51374;45.124;36.712;2023-02-01T05:03:19;0.90;93.41
64880;HTU21D;51374;45.124;36.712;2023-02-01T05:05:47;0.89;93.43
64880;HTU21D;51374;45.124;36.712;2023-02-01T05:08:14;0.91;93.40
64880;HTU21D;51374;45.124;36.712;2023-02-01T05:10:40;0.91;93.42
64880;HTU21D;51374;45.124;36.712;2023-02-01T05:13:07;0.90;93.24
64880;HTU21D;51374;45.124;36.712;2023-02-01T05:15:51;0.87;93.27
64880;HTU21D;51374;45.124;36.712;2023-02-01T05:18:17;0.86;93.23
64880;HTU21D;51374;45.124;36.712;2023-02-01T05:20:43;0.86;93.32
64880;HTU21D;51374;45.124;36.712;2023-02-01T05:23:08;0.84;93.29
64880;HTU21D;51374;45.124;36.712;2023-02-01T05:25:34;0.83;93.25
64880;HTU21D;51374;45.124;36.712;2023-02-01T05:28:00;0.83;93.26
64880;HTU21D;51374;45.124;36.712;2023-02-01T05:30:26;0.82;93.31
64880;HTU21D;51374;45.124;36.712;2023-02-01T05:32:52;0.83;93.30
64880;HTU21D;51374;45.124;36.712;2023-02-01T05:35:18;0.83;93.32
64880;HTU21D;51374;45.124;36.712;2023-02-01T05:37:44;0.86;93.27
64880;HTU21D;51374;45.124;36.712;2023-02-01T05:40:11;0.87;93.25
64880;HTU21D;51374;45.124;36.712;2023-02-01T05:42:36;0.89;93.24
64880;HTU21D;51374;45.124;36.712;2023-02-01T05:45:03;0.92;93.27
64880;HTU21D;51374;45.124;36.712;2023-02-01T05:47:31;0.94;93.24
64880;HTU21D;51374;45.124;36.712;2023-02-01T05:49:56;0.96;93.22
64880;HTU21D;51374;45.124;36.712;2023-02-01T05:52:22;0.98;93.14
64880;HTU21D;51374;45.124;36.712;2023-02-01T05:54:48;0.98;93.16
64880;HTU21D;51374;45.124;36.712;2023-02-01T05:57:15;1.02;93.07
64880;HTU21D;51374;45.124;36.712;2023-02-01T05:59:41;1.03;93.06
64880;HTU21D;51374;45.124;36.712;2023-02-01T06:02:13;1.06;93.08
64880;HTU21D;51374;45.124;36.712;2023-02-01T06:04:39;1.11;93.13
64880;HTU21D;51374;45.124;36.712;2023-02-01T06:07:06;1.17;93.16
64880;HTU21D;51374;45.124;36.712;2023-02-01T06:09:34;1.23;93.17
64880;HTU21D;51374;45.124;36.712;2023-02-01T06:11:59;1.28;93.14
64880;HTU21D;51374;45.124;36.712;2023-02-01T06:14:26;1.34;93.11
64880;HTU21D;51374;45.124;36.712;2023-02-01T06:16:56;1.38;93.08
64880;HTU21D;51374;45.124;36.712;2023-02-01T06:19:23;1.42;93.10
64880;HTU21D;51374;45.124;36.712;2023-02-01T06:21:49;1.49;93.11
64880;HTU21D;51374;45.124;36.712;2023-02-01T06:24:15;1.55;93.09
64880;HTU21D;51374;45.124;36.712;2023-02-01T06:26:40;1.61;93.17
64880;HTU21D;51374;45.124;36.712;2023-02-01T06:29:07;1.68;93.14
64880;HTU21D;51374;45.124;36.712;2023-02-01T06:31:34;1.73;93.12
64880;HTU21D;51374;45.124;36.712;2023-02-01T06:34:00;1.79;93.08
64880;HTU21D;51374;45.124;36.712;2023-02-01T06:36:28;1.85;93.11
64880;HTU21D;51374;45.124;36.712;2023-02-01T06:38:55;1.90;93.06
64880;HTU21D;51374;45.124;36.712;2023-02-01T06:41:22;1.96;93.11
64880;HTU21D;51374;45.124;36.712;2023-02-01T06:43:49;2.02;93.11
64880;HTU21D;51374;45.124;36.712;2023-02-01T06:46:15;2.09;93.10
64880;HTU21D;51374;45.124;36.712;2023-02-01T06:48:41;2.15;93.06
64880;HTU21D;51374;45.124;36.712;2023-02-01T06:51:22;2.23;93.17
64880;HTU21D;51374;45.124;36.712;2023-02-01T06:53:48;2.31;93.22
64880;HTU21D;51374;45.124;36.712;2023-02-01T06:56:14;2.39;93.28
64880;HTU21D;51374;45.124;36.712;2023-02-01T06:58:40;2.45;93.14
64880;HTU21D;51374;45.124;36.712;2023-02-01T07:01:08;2.51;93.13
64880;HTU21D;51374;45.124;36.712;2023-02-01T07:03:34;2.58;93.16
64880;HTU21D;51374;45.124;36.712;2023-02-01T07:06:01;2.65;93.17
64880;HTU21D;51374;45.124;36.712;2023-02-01T07:08:28;2.70;93.14
64880;HTU21D;51374;45.124;36.712;2023-02-01T07:10:54;2.74;93.15
64880;HTU21D;51374;45.124;36.712;2023-02-01T07:13:20;2.78;93.20
64880;HTU21D;51374;45.124;36.712;2023-02-01T07:15:46;2.81;93.08
64880;HTU21D;51374;45.124;36.712;2023-02-01T07:18:15;2.80;93.05
64880;HTU21D;51374;45.124;36.712;2023-02-01T07:20:41;2.80;93.14
64880;HTU21D;51374;45.124;36.712;2023-02-01T07:23:09;2.71;93.06
64880;HTU21D;51374;45.124;36.712;2023-02-01T07:25:35;2.64;93.12
64880;HTU21D;51374;45.124;36.712;2023-02-01T07:28:02;2.60;93.21
64880;HTU21D;51374;45.124;36.712;2023-02-01T07:30:28;2.57;93.28
64880;HTU21D;51374;45.124;36.712;2023-02-01T07:32:54;2.55;93.44
64880;HTU21D;51374;45.124;36.712;2023-02-01T07:35:20;2.51;93.50
64880;HTU21D;51374;45.124;36.712;2023-02-01T07:37:46;2.46;93.53
64880;HTU21D;51374;45.124;36.712;2023-02-01T07:40:12;2.46;93.53
64880;HTU21D;51374;45.124;36.712;2023-02-01T07:42:37;2.46;93.57
64880;HTU21D;51374;45.124;36.712;2023-02-01T07:45:04;2.46;93.60
64880;HTU21D;51374;45.124;36.712;2023-02-01T07:47:30;2.49;93.59
64880;HTU21D;51374;45.124;36.712;2023-02-01T07:49:56;2.47;93.51
64880;HTU21D;51374;45.124;36.712;2023-02-01T07:52:21;2.47;93.50
64880;HTU21D;51374;45.124;36.712;2023-02-01T07:54:47;2.47;93.49
64880;HTU21D;51374;45.124;36.712;2023-02-01T07:57:13;2.47;93.49
64880;HTU21D;51374;45.124;36.712;2023-02-01T07:59:39;2.51;93.54
64880;HTU21D;51374;45.124;36.712;2023-02-01T08:02:25;2.53;93.59
64880;HTU21D;51374;45.124;36.712;2023-02-01T08:04:51;2.54;93.49
64880;HTU21D;51374;45.124;36.712;2023-02-01T08:07:16;2.56;93.51
64880;HTU21D;51374;45.124;36.712;2023-02-01T08:09:42;2.59;93.53
64880;HTU21D;51374;45.124;36.712;2023-02-01T08:12:08;2.62;93.58
64880;HTU21D;51374;45.124;36.712;2023-02-01T08:14:34;2.64;93.40
64880;HTU21D;51374;45.124;36.712;2023-02-01T08:17:00;2.64;93.51
64880;HTU21D;51374;45.124;36.712;2023-02-01T08:19:26;2.66;93.47
64880;HTU21D;51374;45.124;36.712;2023-02-01T08:21:52;2.70;93.56
64880;HTU21D;51374;45.124;36.712;2023-02-01T08:24:17;2.71;93.43
64880;HTU21D;51374;45.124;36.712;2023-02-01T08:26:43;2.74;93.43
64880;HTU21D;51374;45.124;36.712;2023-02-01T08:29:09;2.74;93.35
64880;HTU21D;51374;45.124;36.712;2023-02-01T08:31:38;2.75;93.30
64880;HTU21D;51374;45.124;36.712;2023-02-01T08:34:07;2.72;93.23
64880;HTU21D;51374;45.124;36.712;2023-02-01T08:36:34;2.72;93.22
64880;HTU21D;51374;45.124;36.712;2023-02-01T08:39:01;2.74;93.25
64880;HTU21D;51374;45.124;36.712;2023-02-01T08:41:31;2.79;93.27
64880;HTU21D;51374;45.124;36.712;2023-02-01T08:43:57;2.84;93.29
64880;HTU21D;51374;45.124;36.712;2023-02-01T08:46:23;2.88;93.19
64880;HTU21D;51374;45.124;36.712;2023-02-01T08:48:49;2.87;93.03
64880;HTU21D;51374;45.124;36.712;2023-02-01T08:51:18;2.88;93.04
64880;HTU21D;51374;45.124;36.712;2023-02-01T08:53:44;2.90;93.04
64880;HTU21D;51374;45.124;36.712;2023-02-01T08:56:11;2.91;92.97
64880;HTU21D;51374;45.124;36.712;2023-02-01T08:58:38;2.94;92.91
64880;HTU21D;51374;45.124;36.712;2023-02-01T09:01:09;2.91;92.88
64880;HTU21D;51374;45.124;36.712;2023-02-01T09:03:36;2.88;92.88
64880;HTU21D;51374;45.124;36.712;2023-02-01T09:06:09;2.88;92.85
64880;HTU21D;51374;45.124;36.712;2023-02-01T09:08:35;2.84;92.75
64880;HTU21D;51374;45.124;36.712;2023-02-01T09:11:04;2.80;92.73
64880;HTU21D;51374;45.124;36.712;2023-02-01T09:13:31;2.81;92.87
64880;HTU21D;51374;45.124;36.712;2023-02-01T09:15:57;2.81;92.85
64880;HTU21D;51374;45.124;36.712;2023-02-01T09:18:25;2.76;92.72
64880;HTU21D;51374;45.124;36.712;2023-02-01T09:20:51;2.70;92.47
64880;HTU21D;51374;45.124;36.712;2023-02-01T09:23:17;2.69;92.63
64880;HTU21D;51374;45.124;36.712;2023-02-01T09:25:46;2.69;92.83
64880;HTU21D;51374;45.124;36.712;2023-02-01T09:28:14;2.66;92.75
64880;HTU21D;51374;45.124;36.712;2023-02-01T09:30:39;2.61;92.67
64880;HTU21D;51374;45.124;36.712;2023-02-01T09:33:05;2.57;92.69
64880;HTU21D;51374;45.124;36.712;2023-02-01T09:35:31;2.58;92.84
64880;HTU21D;51374;45.124;36.712;2023-02-01T09:37:57;2.56;92.74
64880;HTU21D;51374;45.124;36.712;2023-02-01T09:40:23;2.52;92.66
64880;HTU21D;51374;45.124;36.712;2023-02-01T09:43:32;2.46;92.63
64880;HTU21D;51374;45.124;36.712;2023-02-01T09:46:03;2.43;92.78
64880;HTU21D;51374;45.124;36.712;2023-02-01T09:48:37;2.38;92.61
64880;HTU21D;51374;45.124;36.712;2023-02-01T09:51:09;2.36;92.71
64880;HTU21D;51374;45.124;36.712;2023-02-01T09:53:46;2.31;92.72
64880;HTU21D;51374;45.124;36.712;2023-02-01T09:56:36;2.28;92.79
64880;HTU21D;51374;45.124;36.712;2023-02-01T10:01:44;2.21;92.56
64880;HTU21D;51374;45.124;36.712;2023-02-01T10:04:13;2.14;92.52
64880;HTU21D;51374;45.124;36.712;2023-02-01T10:26:25;2.28;92.37
64880;HTU21D;51374;45.124;36.712;2023-02-01T10:28:54;2.27;92.43
64880;HTU21D;51374;45.124;36.712;2023-02-01T10:31:25;2.29;92.53
64880;HTU21D;51374;45.124;36.712;2023-02-01T10:34:00;2.31;92.49
64880;HTU21D;51374;45.124;36.712;2023-02-01T10:36:34;2.32;92.46
64880;HTU21D;51374;45.124;36.712;2023-02-01T10:39:03;2.35;92.46
64880;HTU21D;51374;45.124;36.712;2023-02-01T10:41:38;2.36;92.40
64880;HTU21D;51374;45.124;36.712;2023-02-01T10:44:14;2.38;92.43
64880;HTU21D;51374;45.124;36.712;2023-02-01T10:46:41;2.40;92.40
64880;HTU21D;51374;45.124;36.712;2023-02-01T11:04:11;2.68;92.20
64880;HTU21D;51374;45.124;36.712;2023-02-01T11:06:45;2.75;92.23
64880;HTU21D;51374;45.124;36.712;2023-02-01T11:09:19;2.79;92.08
64880;HTU21D;51374;45.124;36.712;2023-02-01T11:14:22;2.95;92.24
64880;HTU21D;51374;45.124;36.712;2023-02-01T11:16:58;3.00;92.11
64880;HTU21D;51374;45.124;36.712;2023-02-01T11:19:26;3.02;91.82
64880;HTU21D;51374;45.124;36.712;2023-02-01T11:21:57;3.04;91.92
64880;HTU21D;51374;45.124;36.712;2023-02-01T11:24:31;3.11;91.99
64880;HTU21D;51374;45.124;36.712;2023-02-01T11:27:00;3.16;91.98
64880;HTU21D;51374;45.124;36.712;2023-02-01T11:29:36;3.20;91.98
64880;HTU21D;51374;45.124;36.712;2023-02-01T11:32:03;3.28;91.96
64880;HTU21D;51374;45.124;36.712;2023-02-01T11:34:52;3.35;91.83
64880;HTU21D;51374;45.124;36.712;2023-02-01T11:37:26;3.38;91.72
64880;HTU21D;51374;45.124;36.712;2023-02-01T11:45:56;3.56;91.68
64880;HTU21D;51374;45.124;36.712;2023-02-01T11:48:24;3.56;91.43
64880;HTU21D;51374;45.124;36.712;2023-02-01T11:51:21;3.61;91.48
64880;HTU21D;51374;45.124;36.712;2023-02-01T12:01:51;3.67;91.37
64880;HTU21D;51374;45.124;36.712;2023-02-01T12:18:50;3.56;91.00
64880;HTU21D;51374;45.124;36.712;2023-02-01T12:35:41;3.77;90.92
64880;HTU21D;51374;45.124;36.712;2023-02-01T12:41:01;3.77;90.69
64880;HTU21D;51374;45.124;36.712;2023-02-01T12:43:51;3.83;90.72
64880;HTU21D;51374;45.124;36.712;2023-02-01T12:46:30;3.85;90.66
64880;HTU21D;51374;45.124;36.712;2023-02-01T12:49:11;3.84;90.66
64880;HTU21D;51374;45.124;36.712;2023-02-01T12:51:41;3.87;90.83
64880;HTU21D;51374;45.124;36.712;2023-02-01T12:57:11;3.86;90.63
64880;HTU21D;51374;45.124;36.712;2023-02-01T12:59:58;3.83;90.47
64880;HTU21D;51374;45.124;36.712;2023-02-01T13:02:45;3.79;90.62
64880;HTU21D;51374;45.124;36.712;2023-02-01T13:08:06;3.75;90.69
64880;HTU21D;51374;45.124;36.712;2023-02-01T13:10:48;3.75;90.76
64880;HTU21D;51374;45.124;36.712;2023-02-01T13:13:31;3.71;90.68
64880;HTU21D;51374;45.124;36.712;2023-02-01T13:18:44;3.58;90.62
64880;HTU21D;51374;45.124;36.712;2023-02-01T13:21:21;3.48;90.71
64880;HTU21D;51374;45.124;36.712;2023-02-01T13:23:50;3.41;90.72
64880;HTU21D;51374;45.124;36.712;2023-02-01T13:26:17;3.31;90.79
64880;HTU21D;51374;45.124;36.712;2023-02-01T13:28:50;3.23;90.84
64880;HTU21D;51374;45.124;36.712;2023-02-01T13:37:10;3.03;91.07
64880;HTU21D;51374;45.124;36.712;2023-02-01T13:42:28;2.89;90.90
64880;HTU21D;51374;45.124;36.712;2023-02-01T13:45:13;2.84;90.99
64880;HTU21D;51374;45.124;36.712;2023-02-01T13:47:42;2.80;91.01
64880;HTU21D;51374;45.124;36.712;2023-02-01T13:52:44;2.68;91.10
64880;HTU21D;51374;45.124;36.712;2023-02-01T13:57:48;2.62;91.21
64880;HTU21D;51374;45.124;36.712;2023-02-01T14:00:41;2.60;91.26
64880;HTU21D;51374;45.124;36.712;2023-02-01T14:03:21;2.57;91.28
64880;HTU21D;51374;45.124;36.712;2023-02-01T14:08:45;2.52;91.29
64880;HTU21D;51374;45.124;36.712;2023-02-01T14:11:33;2.50;91.26
64880;HTU21D;51374;45.124;36.712;2023-02-01T14:19:27;2.43;91.28
64880;HTU21D;51374;45.124;36.712;2023-02-01T14:21:59;2.39;91.20
64880;HTU21D;51374;45.124;36.712;2023-02-01T14:26:54;2.17;90.97
64880;HTU21D;51374;45.124;36.712;2023-02-01T14:29:33;2.09;91.20
64880;HTU21D;51374;45.124;36.712;2023-02-01T14:44:57;1.92;91.49
64880;HTU21D;51374;45.124;36.712;2023-02-01T14:47:41;1.92;91.51
64880;HTU21D;51374;45.124;36.712;2023-02-01T14:52:40;1.88;91.47
64880;HTU21D;51374;45.124;36.712;2023-02-01T14:57:43;1.92;91.46
64880;HTU21D;51374;45.124;36.712;2023-02-01T15:00:20;1.86;91.40
64880;HTU21D;51374;45.124;36.712;2023-02-01T15:02:48;1.81;91.37
64880;HTU21D;51374;45.124;36.712;2023-02-01T15:05:32;1.79;91.49
64880;HTU21D;51374;45.124;36.712;2023-02-01T15:08:11;1.75;91.46
64880;HTU21D;51374;45.124;36.712;2023-02-01T15:10:43;1.70;91.51
64880;HTU21D;51374;45.124;36.712;2023-02-01T15:13:25;1.69;91.50
64880;HTU21D;51374;45.124;36.712;2023-02-01T15:18:35;1.68;91.50
64880;HTU21D;51374;45.124;36.712;2023-02-01T15:21:03;1.62;91.37
64880;HTU21D;51374;45.124;36.712;2023-02-01T15:23:29;1.60;91.50
64880;HTU21D;51374;45.124;36.712;2023-02-01T15:25:55;1.56;91.47
64880;HTU21D;51374;45.124;36.712;2023-02-01T15:28:22;1.55;91.57
64880;HTU21D;51374;45.124;36.712;2023-02-01T15:31:00;1.55;91.68
64880;HTU21D;51374;45.124;36.712;2023-02-01T15:33:27;1.53;91.68
64880;HTU21D;51374;45.124;36.712;2023-02-01T15:38:47;1.51;91.68
64880;HTU21D;51374;45.124;36.712;2023-02-01T15:41:18;1.50;91.68
64880;HTU21D;51374;45.124;36.712;2023-02-01T15:48:58;1.43;91.58
64880;HTU21D;51374;45.124;36.712;2023-02-01T15:51:26;1.43;91.62
64880;HTU21D;51374;45.124;36.712;2023-02-01T15:53:56;1.39;91.53
64880;HTU21D;51374;45.124;36.712;2023-02-01T15:56:25;1.39;91.63
64880;HTU21D;51374;45.124;36.712;2023-02-01T15:58:55;1.39;91.68
64880;HTU21D;51374;45.124;36.712;2023-02-01T16:01:22;1.40;91.63
64880;HTU21D;51374;45.124;36.712;2023-02-01T16:03:49;1.39;91.59
64880;HTU21D;51374;45.124;36.712;2023-02-01T16:09:12;1.35;91.57
64880;HTU21D;51374;45.124;36.712;2023-02-01T16:11:48;1.29;91.63
64880;HTU21D;51374;45.124;36.712;2023-02-01T16:14:15;1.24;91.59
64880;HTU21D;51374;45.124;36.712;2023-02-01T16:16:41;1.19;91.71
64880;HTU21D;51374;45.124;36.712;2023-02-01T16:19:07;1.17;91.78
64880;HTU21D;51374;45.124;36.712;2023-02-01T16:21:33;1.11;91.74
64880;HTU21D;51374;45.124;36.712;2023-02-01T16:23:59;1.07;91.82
64880;HTU21D;51374;45.124;36.712;2023-02-01T16:26:30;1.02;91.82
64880;HTU21D;51374;45.124;36.712;2023-02-01T16:28:57;0.94;91.79
64880;HTU21D;51374;45.124;36.712;2023-02-01T16:31:29;0.88;91.91
64880;HTU21D;51374;45.124;36.712;2023-02-01T16:33:56;0.82;91.96
64880;HTU21D;51374;45.124;36.712;2023-02-01T16:36:22;0.80;91.96
64880;HTU21D;51374;45.124;36.712;2023-02-01T16:38:48;0.76;91.90
64880;HTU21D;51374;45.124;36.712;2023-02-01T16:41:18;0.72;91.93
64880;HTU21D;51374;45.124;36.712;2023-02-01T16:43:44;0.69;91.91
64880;HTU21D;51374;45.124;36.712;2023-02-01T16:46:19;0.64;91.92
64880;HTU21D;51374;45.124;36.712;2023-02-01T16:48:58;0.61;91.95
64880;HTU21D;51374;45.124;36.712;2023-02-01T16:51:31;0.54;91.89
64880;HTU21D;51374;45.124;36.712;2023-02-01T16:53:59;0.45;91.88
64880;HTU21D;51374;45.124;36.712;2023-02-01T16:56:30;0.43;91.94
64880;HTU21D;51374;45.124;36.712;2023-02-01T16:58:56;0.40;91.99
64880;HTU21D;51374;45.124;36.712;2023-02-01T17:01:23;0.39;91.98
64880;HTU21D;51374;45.124;36.712;2023-02-01T17:03:49;0.37;91.94
64880;HTU21D;51374;45.124;36.712;2023-02-01T17:06:18;0.38;91.89
64880;HTU21D;51374;45.124;36.712;2023-02-01T17:08:50;0.35;91.90
64880;HTU21D;51374;45.124;36.712;2023-02-01T17:11:17;0.33;91.86
64880;HTU21D;51374;45.124;36.712;2023-02-01T17:13:43;0.30;91.81
64880;HTU21D;51374;45.124;36.712;2023-02-01T17:16:21;0.27;91.79
64880;HTU21D;51374;45.124;36.712;2023-02-01T17:18:55;0.21;91.86
64880;HTU21D;51374;45.124;36.712;2023-02-01T17:21:22;0.22;91.89
64880;HTU21D;51374;45.124;36.712;2023-02-01T17:23:48;0.20;91.89
64880;HTU21D;51374;45.124;36.712;2023-02-01T17:26:14;0.19;91.88
64880;HTU21D;51374;45.124;36.712;2023-02-01T17:28:40;0.18;91.89
64880;HTU21D;51374;45.124;36.712;2023-02-01T17:31:08;0.16;91.85
64880;HTU21D;51374;45.124;36.712;2023-02-01T17:33:36;0.13;91.85
64880;HTU21D;51374;45.124;36.712;2023-02-01T17:36:04;0.08;91.91
64880;HTU21D;51374;45.124;36.712;2023-02-01T17:38:31;0.04;91.89
64880;HTU21D;51374;45.124;36.712;2023-02-01T17:40:58;-0.00;91.98
64880;HTU21D;51374;45.124;36.712;2023-02-01T17:43:25;0.02;92.07
64880;HTU21D;51374;45.124;36.712;2023-02-01T17:45:54;0.03;92.13
64880;HTU21D;51374;45.124;36.712;2023-02-01T17:48:22;0.03;92.07
64880;HTU21D;51374;45.124;36.712;2023-02-01T17:50:49;0.03;91.97
64880;HTU21D;51374;45.124;36.712;2023-02-01T17:53:19;-0.00;91.94
64880;HTU21D;51374;45.124;36.712;2023-02-01T17:55:49;-0.00;91.89
64880;HTU21D;51374;45.124;36.712;2023-02-01T17:58:16;-0.01;91.86
64880;HTU21D;51374;45.124;36.712;2023-02-01T18:00:43;-0.01;91.85
64880;HTU21D;51374;45.124;36.712;2023-02-01T18:03:29;-0.02;91.79
64880;HTU21D;51374;45.124;36.712;2023-02-01T18:05:57;-0.03;91.81
64880;HTU21D;51374;45.124;36.712;2023-02-01T18:08:29;-0.06;91.79
64880;HTU21D;51374;45.124;36.712;2023-02-01T18:10:57;-0.08;91.81
64880;HTU21D;51374;45.124;36.712;2023-02-01T18:13:27;-0.10;91.84
64880;HTU21D;51374;45.124;36.712;2023-02-01T18:15:53;-0.09;91.85
64880;HTU21D;51374;45.124;36.712;2023-02-01T18:18:20;-0.08;91.82
64880;HTU21D;51374;45.124;36.712;2023-02-01T18:20:47;-0.08;91.79
64880;HTU21D;51374;45.124;36.712;2023-02-01T18:23:19;-0.09;91.76
64880;HTU21D;51374;45.124;36.712;2023-02-01T18:25:46;-0.09;91.72
64880;HTU21D;51374;45.124;36.712;2023-02-01T18:28:15;-0.09;91.74
64880;HTU21D;51374;45.124;36.712;2023-02-01T18:30:43;-0.08;91.69
64880;HTU21D;51374;45.124;36.712;2023-02-01T18:33:15;-0.09;91.70
64880;HTU21D;51374;45.124;36.712;2023-02-01T18:35:41;-0.08;91.76
64880;HTU21D;51374;45.124;36.712;2023-02-01T18:38:08;-0.10;91.73